createdAt,value
2022-10-09T00:01:37.084Z,6.73
2022-10-09T00:04:07.028Z,6.65
2022-10-09T00:06:39.461Z,6.69
2022-10-09T00:09:09.040Z,6.55
2022-10-09T00:11:38.591Z,6.52
2022-10-09T00:14:08.476Z,6.50
2022-10-09T00:16:38.075Z,6.49
2022-10-09T00:19:07.653Z,6.46
2022-10-09T00:21:39.938Z,6.44
2022-10-09T00:24:09.637Z,6.43
2022-10-09T00:26:39.300Z,6.42
2022-10-09T00:29:08.994Z,6.38
2022-10-09T00:31:38.650Z,6.36
2022-10-09T00:34:08.237Z,6.35
2022-10-09T00:36:40.392Z,6.33
2022-10-09T00:39:09.959Z,6.31
2022-10-09T00:41:39.545Z,6.31
2022-10-09T00:44:44.509Z,6.27
2022-10-09T00:47:18.555Z,6.23
2022-10-09T00:49:48.160Z,6.21
2022-10-09T00:52:20.500Z,6.18
2022-10-09T00:54:50.283Z,6.17
2022-10-09T00:57:19.893Z,6.13
2022-10-09T00:59:49.493Z,6.12
2022-10-09T01:02:19.063Z,6.09
2022-10-09T01:04:48.675Z,6.10
2022-10-09T01:07:30.883Z,6.08
2022-10-09T01:10:04.860Z,6.04
2022-10-09T01:12:45.296Z,6.03
2022-10-09T01:15:20.686Z,6.02
2022-10-09T01:17:56.451Z,6.01
2022-10-09T01:20:35.907Z,6.01
2022-10-09T01:23:36.568Z,5.98
2022-10-09T01:26:12.778Z,5.97
2022-10-09T01:28:46.630Z,5.95
2022-10-09T01:31:17.002Z,5.92
2022-10-09T01:33:47.586Z,5.91
2022-10-09T01:36:17.981Z,5.87
2022-10-09T01:38:47.893Z,5.86
2022-10-09T01:41:17.440Z,5.82
2022-10-09T01:43:49.563Z,5.82
2022-10-09T01:46:24.616Z,5.79
2022-10-09T01:49:10.968Z,5.78
2022-10-09T01:51:45.316Z,5.76
2022-10-09T01:54:16.268Z,5.74
2022-10-09T01:56:48.289Z,5.74
2022-10-09T01:59:21.662Z,5.72
2022-10-09T02:01:51.514Z,5.70
2022-10-09T02:04:21.656Z,5.68
2022-10-09T02:06:51.568Z,5.64
2022-10-09T02:09:21.239Z,5.63
2022-10-09T02:11:54.446Z,5.62
2022-10-09T02:14:27.689Z,5.61
2022-10-09T02:17:00.699Z,5.59
2022-10-09T02:19:34.380Z,5.56
2022-10-09T02:22:09.576Z,5.54
2022-10-09T02:24:41.027Z,5.53
2022-10-09T02:27:11.697Z,5.52
2022-10-09T02:29:44.835Z,5.50
2022-10-09T02:32:15.294Z,5.46
2022-10-09T02:34:44.952Z,5.44
2022-10-09T02:37:14.904Z,5.42
2022-10-09T02:39:44.715Z,5.43
2022-10-09T02:42:14.301Z,5.40
2022-10-09T02:44:46.445Z,5.39
2022-10-09T02:47:15.966Z,5.38
2022-10-09T02:49:45.551Z,5.36
2022-10-09T02:52:15.323Z,5.33
2022-10-09T02:54:44.915Z,5.32
2022-10-09T02:57:14.420Z,5.31
2022-10-09T02:59:46.576Z,5.28
2022-10-09T03:02:16.168Z,5.25
2022-10-09T03:04:45.815Z,5.28
2022-10-09T03:07:15.347Z,5.30
2022-10-09T03:09:44.870Z,5.32
2022-10-09T03:12:16.145Z,5.29
2022-10-09T03:14:48.297Z,5.27
2022-10-09T03:17:17.853Z,5.25
2022-10-09T03:19:47.395Z,5.26
2022-10-09T03:22:17.042Z,5.27
2022-10-09T03:24:46.601Z,5.16
2022-10-09T03:27:16.181Z,5.15
2022-10-09T03:29:48.328Z,5.19
2022-10-09T03:32:17.932Z,5.19
2022-10-09T03:34:47.527Z,5.08
2022-10-09T03:37:17.067Z,4.92
2022-10-09T03:39:46.618Z,4.97
2022-10-09T03:42:16.207Z,4.88
2022-10-09T03:44:48.413Z,4.95
2022-10-09T03:47:17.965Z,5.00
2022-10-09T03:49:47.516Z,5.07
2022-10-09T03:52:17.026Z,5.05
2022-10-09T03:54:46.540Z,5.00
2022-10-09T03:57:16.160Z,4.96
2022-10-09T03:59:48.302Z,4.94
2022-10-09T04:02:17.874Z,4.92
2022-10-09T04:04:47.440Z,4.92
2022-10-09T04:07:16.968Z,4.92
2022-10-09T04:09:46.637Z,4.91
2022-10-09T04:12:16.297Z,4.78
2022-10-09T04:14:48.444Z,4.81
2022-10-09T04:17:18.047Z,4.84
2022-10-09T04:19:47.571Z,4.81
2022-10-09T04:22:17.107Z,4.84
2022-10-09T04:24:46.639Z,4.70
2022-10-09T04:27:16.467Z,4.72
2022-10-09T04:29:48.633Z,4.67
2022-10-09T04:32:18.150Z,4.69
2022-10-09T04:34:47.703Z,4.71
2022-10-09T04:37:17.229Z,4.70
2022-10-09T04:39:46.843Z,4.66
2022-10-09T04:42:16.557Z,4.67
2022-10-09T04:44:48.677Z,4.66
2022-10-09T04:47:18.227Z,4.65
2022-10-09T04:49:47.733Z,4.59
2022-10-09T04:52:17.280Z,4.54
2022-10-09T04:54:46.797Z,4.59
2022-10-09T04:57:16.655Z,4.48
2022-10-09T04:59:48.794Z,4.55
2022-10-09T05:02:18.377Z,4.54
2022-10-09T05:04:49.304Z,4.54
2022-10-09T05:07:18.802Z,4.55
2022-10-09T05:09:48.332Z,4.52
2022-10-09T05:12:18.006Z,4.51
2022-10-09T05:14:50.120Z,4.34
2022-10-09T05:17:23.187Z,4.36
2022-10-09T05:19:52.989Z,4.39
2022-10-09T05:22:22.542Z,4.42
2022-10-09T05:24:52.127Z,4.45
2022-10-09T05:27:21.851Z,4.47
2022-10-09T05:29:53.990Z,4.42
2022-10-09T05:32:23.535Z,4.39
2022-10-09T05:34:53.066Z,4.39
2022-10-09T05:37:22.607Z,4.35
2022-10-09T05:39:52.247Z,4.30
2022-10-09T05:42:21.783Z,4.27
2022-10-09T05:44:53.976Z,4.27
2022-10-09T05:47:23.514Z,4.33
2022-10-09T05:49:53.108Z,4.35
2022-10-09T05:52:22.651Z,4.32
2022-10-09T05:54:52.824Z,4.25
2022-10-09T05:57:22.420Z,4.24
2022-10-09T05:59:54.524Z,4.23
2022-10-09T06:02:24.273Z,4.22
2022-10-09T06:04:53.917Z,4.22
2022-10-09T06:07:23.444Z,4.23
2022-10-09T06:09:53.563Z,4.25
2022-10-09T06:12:23.099Z,4.20
2022-10-09T06:14:55.242Z,4.13
2022-10-09T06:17:24.792Z,4.10
2022-10-09T06:19:54.308Z,4.06
2022-10-09T06:22:23.892Z,4.04
2022-10-09T06:24:53.461Z,4.05
2022-10-09T06:27:23.161Z,4.04
2022-10-09T06:29:56.081Z,4.10
2022-10-09T06:32:25.672Z,4.10
2022-10-09T06:34:57.411Z,4.07
2022-10-09T06:37:26.977Z,4.10
2022-10-09T06:39:56.511Z,4.11
2022-10-09T06:42:26.115Z,4.13
2022-10-09T06:45:02.799Z,4.15
2022-10-09T06:47:32.406Z,4.15
2022-10-09T06:50:02.129Z,4.18
2022-10-09T06:52:31.694Z,4.17
2022-10-09T06:55:01.207Z,4.19
2022-10-09T06:57:30.769Z,4.21
2022-10-09T07:00:02.910Z,4.21
2022-10-09T07:02:34.862Z,4.22
2022-10-09T07:05:04.523Z,4.26
2022-10-09T07:07:34.087Z,4.26
2022-10-09T07:10:03.654Z,4.32
2022-10-09T07:12:33.180Z,4.37
2022-10-09T07:15:07.077Z,4.33
2022-10-09T07:17:36.650Z,4.36
2022-10-09T07:20:06.549Z,4.37
2022-10-09T07:22:36.104Z,4.40
2022-10-09T07:25:05.811Z,4.42
2022-10-09T07:27:36.036Z,4.46
2022-10-09T07:30:09.707Z,4.49
2022-10-09T07:32:39.275Z,4.53
2022-10-09T07:35:09.569Z,4.59
2022-10-09T07:37:39.157Z,4.63
2022-10-09T07:40:09.613Z,4.65
2022-10-09T07:42:39.151Z,4.68
2022-10-09T07:45:12.595Z,4.73
2022-10-09T07:47:42.181Z,4.78
2022-10-09T07:50:12.247Z,4.83
2022-10-09T07:52:41.809Z,4.89
2022-10-09T07:55:11.975Z,4.97
2022-10-09T07:57:41.527Z,5.04
2022-10-09T08:00:14.957Z,5.16
2022-10-09T08:02:44.737Z,5.27
2022-10-09T08:05:14.323Z,5.41
2022-10-09T08:07:43.917Z,5.56
2022-10-09T08:10:13.953Z,5.70
2022-10-09T08:12:43.637Z,5.89
2022-10-09T08:15:16.021Z,6.12
2022-10-09T08:17:45.745Z,6.30
2022-10-09T08:20:15.351Z,6.58
2022-10-09T08:22:44.900Z,6.81
2022-10-09T08:25:14.455Z,7.08
2022-10-09T08:27:44.064Z,7.39
2022-10-09T08:30:16.380Z,7.74
2022-10-09T08:32:46.270Z,7.88
2022-10-09T08:35:16.054Z,8.04
2022-10-09T08:37:45.552Z,8.29
2022-10-09T08:40:19.754Z,8.55
2022-10-09T08:42:54.205Z,8.84
2022-10-09T08:45:26.461Z,9.05
2022-10-09T08:47:59.015Z,9.27
2022-10-09T08:50:30.809Z,9.47
2022-10-09T08:53:04.335Z,9.63
2022-10-09T08:55:38.417Z,9.79
2022-10-09T08:58:14.555Z,9.92
2022-10-09T09:00:50.643Z,10.08
2022-10-09T09:03:32.796Z,10.33
2022-10-09T09:06:06.263Z,10.50
2022-10-09T09:08:46.556Z,10.72
2022-10-09T09:11:22.106Z,10.89
2022-10-09T09:14:04.348Z,10.88
2022-10-09T09:16:42.620Z,10.98
2022-10-09T09:19:37.512Z,11.09
2022-10-09T09:22:07.223Z,11.20
2022-10-09T09:24:39.772Z,11.33
2022-10-09T09:27:15.269Z,11.54
2022-10-09T09:29:47.871Z,11.72
2022-10-09T09:32:23.623Z,11.87
2022-10-09T09:34:53.521Z,11.95
2022-10-09T09:37:23.065Z,12.11
2022-10-09T09:42:42.212Z,12.39
2022-10-09T09:45:16.642Z,12.48
2022-10-09T09:47:52.257Z,12.61
2022-10-09T09:50:46.967Z,12.70
2022-10-09T09:53:28.264Z,12.79
2022-10-09T09:55:58.571Z,12.88
2022-10-09T09:58:33.415Z,12.97
2022-10-09T10:01:04.350Z,12.96
2022-10-09T10:03:37.880Z,13.02
2022-10-09T10:06:07.916Z,13.09
2022-10-09T10:08:37.687Z,13.20
2022-10-09T10:11:09.507Z,13.27
2022-10-09T10:13:41.449Z,13.40
2022-10-09T10:16:12.354Z,13.48
2022-10-09T10:18:45.345Z,13.59
2022-10-09T10:21:16.785Z,13.67
2022-10-09T10:23:48.470Z,13.73
2022-10-09T10:26:25.729Z,13.86
2022-10-09T10:28:59.505Z,13.93
2022-10-09T10:31:41.657Z,14.00
2022-10-09T10:34:19.784Z,14.09
2022-10-09T10:36:49.895Z,14.19
2022-10-09T10:39:24.387Z,14.26
2022-10-09T10:41:56.474Z,14.30
2022-10-09T10:44:31.052Z,14.36
2022-10-09T10:47:02.847Z,14.44
2022-10-09T10:49:35.414Z,14.51
2022-10-09T10:52:15.208Z,14.55
2022-10-09T10:54:48.409Z,14.59
2022-10-09T10:57:21.327Z,14.65
2022-10-09T11:00:00.326Z,14.75
2022-10-09T11:03:02.827Z,14.79
2022-10-09T11:05:41.532Z,14.88
2022-10-09T11:08:31.206Z,14.93
2022-10-09T11:11:06.472Z,15.05
2022-10-09T11:13:39.298Z,15.15
2022-10-09T11:16:19.837Z,15.23
2022-10-09T11:19:00.954Z,15.32
2022-10-09T11:21:45.506Z,15.26
2022-10-09T11:24:27.223Z,15.36
2022-10-09T11:27:03.628Z,15.37
2022-10-09T11:29:37.465Z,15.38
2022-10-09T11:32:09.732Z,15.48
2022-10-09T11:34:42.452Z,15.50
2022-10-09T11:37:19.147Z,15.56
2022-10-09T11:39:49.134Z,15.63
2022-10-09T11:42:22.835Z,15.72
2022-10-09T11:44:58.583Z,15.71
2022-10-09T11:47:33.721Z,15.80
2022-10-09T11:50:14.935Z,15.84
2022-10-09T11:52:53.118Z,15.88
2022-10-09T11:55:25.763Z,15.95
2022-10-09T11:57:55.545Z,15.99
2022-10-09T12:00:33.087Z,16.10
2022-10-09T12:03:05.858Z,16.13
2022-10-09T12:05:43.704Z,16.18
2022-10-09T12:08:19.641Z,16.16
2022-10-09T12:10:53.905Z,16.26
2022-10-09T12:13:51.548Z,16.33
2022-10-09T12:16:44.964Z,16.43
2022-10-09T12:19:20.434Z,16.38
2022-10-09T12:21:56.584Z,16.43
2022-10-09T12:24:29.823Z,16.45
2022-10-09T12:27:03.424Z,16.51
2022-10-09T12:29:37.122Z,16.57
2022-10-09T12:32:10.833Z,16.59
2022-10-09T12:34:46.331Z,16.62
2022-10-09T12:37:18.738Z,16.71
2022-10-09T12:39:52.213Z,16.71
2022-10-09T12:42:24.707Z,16.80
2022-10-09T12:44:56.451Z,16.71
2022-10-09T12:47:28.480Z,16.72
2022-10-09T12:50:02.837Z,16.73
2022-10-09T12:52:33.868Z,16.71
2022-10-09T12:55:18.973Z,16.70
2022-10-09T12:57:48.987Z,16.69
2022-10-09T13:00:18.945Z,16.74
2022-10-09T13:02:49.114Z,16.80
2022-10-09T13:05:18.998Z,16.88
2022-10-09T13:07:54.699Z,16.95
2022-10-09T13:10:26.899Z,17.01
2022-10-09T13:12:58.859Z,17.00
2022-10-09T13:15:36.784Z,16.99
2022-10-09T13:18:16.422Z,17.01
2022-10-09T13:20:45.963Z,17.06
2022-10-09T13:23:29.948Z,17.10
2022-10-09T13:26:03.811Z,17.13
2022-10-09T13:28:33.621Z,17.15
2022-10-09T13:31:09.351Z,17.16
2022-10-09T13:33:38.991Z,17.12
2022-10-09T13:36:09.161Z,17.14
2022-10-09T13:38:38.723Z,17.21
2022-10-09T13:41:13.256Z,17.23
2022-10-09T13:43:43.023Z,17.23
2022-10-09T13:46:12.596Z,17.19
2022-10-09T13:48:42.173Z,17.19
2022-10-09T13:51:11.718Z,17.18
2022-10-09T13:53:41.506Z,17.19
2022-10-09T13:56:13.636Z,17.22
2022-10-09T13:58:43.143Z,17.20
2022-10-09T14:01:12.861Z,17.20
2022-10-09T14:03:42.477Z,17.19
2022-10-09T14:06:12.041Z,17.20
2022-10-09T14:08:41.615Z,17.23
2022-10-09T14:11:13.747Z,17.26
2022-10-09T14:13:43.402Z,17.26
2022-10-09T14:16:13.790Z,17.23
2022-10-09T14:18:43.348Z,17.24
2022-10-09T14:21:15.269Z,17.24
2022-10-09T14:23:45.442Z,17.25
2022-10-09T14:26:17.641Z,17.31
2022-10-09T14:28:47.217Z,17.32
2022-10-09T14:31:17.470Z,17.32
2022-10-09T14:33:47.568Z,17.35
2022-10-09T14:36:20.073Z,17.32
2022-10-09T14:38:51.028Z,17.31
2022-10-09T14:41:23.825Z,17.26
2022-10-09T14:43:59.234Z,17.27
2022-10-09T14:46:30.150Z,17.27
2022-10-09T14:49:01.185Z,17.22
2022-10-09T14:51:34.770Z,17.22
2022-10-09T14:54:06.735Z,17.16
2022-10-09T14:56:39.327Z,17.10
2022-10-09T14:59:09.229Z,17.06
2022-10-09T15:01:39.094Z,17.01
2022-10-09T15:04:08.991Z,16.98
2022-10-09T15:06:38.642Z,16.99
2022-10-09T15:09:08.272Z,16.93
2022-10-09T15:11:40.474Z,16.89
2022-10-09T15:14:10.009Z,16.83
2022-10-09T15:16:39.631Z,16.80
2022-10-09T15:19:09.456Z,16.75
2022-10-09T15:21:39.049Z,16.73
2022-10-09T15:24:08.978Z,16.71
2022-10-09T15:26:42.005Z,16.68
2022-10-09T15:29:12.129Z,16.64
2022-10-09T15:31:43.180Z,16.61
2022-10-09T15:34:13.596Z,16.57
2022-10-09T15:36:44.343Z,16.55
2022-10-09T15:39:14.205Z,16.45
2022-10-09T15:41:47.152Z,16.45
2022-10-09T15:44:18.948Z,16.46
2022-10-09T15:46:49.971Z,16.40
2022-10-09T15:49:19.869Z,16.32
2022-10-09T15:51:49.429Z,16.32
2022-10-09T15:54:18.975Z,16.28
2022-10-09T15:56:51.096Z,16.23
2022-10-09T15:59:20.634Z,16.20
2022-10-09T16:01:51.222Z,16.16
2022-10-09T16:04:20.893Z,16.11
2022-10-09T16:06:50.411Z,16.07
2022-10-09T16:09:19.975Z,16.02
2022-10-09T16:11:52.444Z,15.92
2022-10-09T16:14:22.020Z,15.86
2022-10-09T16:16:51.773Z,15.78
2022-10-09T16:19:21.308Z,15.72
2022-10-09T16:21:51.255Z,15.61
2022-10-09T16:24:21.092Z,15.55
2022-10-09T16:26:53.900Z,15.46
2022-10-09T16:29:23.420Z,15.33
2022-10-09T16:31:52.989Z,15.25
2022-10-09T16:34:22.719Z,15.18
2022-10-09T16:36:52.312Z,15.05
2022-10-09T16:39:23.630Z,14.93
2022-10-09T16:41:57.700Z,14.76
2022-10-09T16:44:27.236Z,14.64
2022-10-09T16:46:56.782Z,14.48
2022-10-09T16:49:26.300Z,14.37
2022-10-09T16:51:55.966Z,14.28
2022-10-09T16:54:25.481Z,14.19
2022-10-09T16:56:58.267Z,14.10
2022-10-09T16:59:27.953Z,14.03
2022-10-09T17:01:57.507Z,13.92
2022-10-09T17:04:27.033Z,13.84
2022-10-09T17:06:56.574Z,13.73
2022-10-09T17:09:26.131Z,13.62
2022-10-09T17:11:58.270Z,13.58
2022-10-09T17:14:27.796Z,13.48
2022-10-09T17:16:57.322Z,13.39
2022-10-09T17:19:26.940Z,13.29
2022-10-09T17:21:56.514Z,13.20
2022-10-09T17:24:26.054Z,13.11
2022-10-09T17:26:58.794Z,13.03
2022-10-09T17:29:28.489Z,12.95
2022-10-09T17:31:58.052Z,12.85
2022-10-09T17:34:27.750Z,12.76
2022-10-09T17:36:57.341Z,12.66
2022-10-09T17:39:26.959Z,12.56
2022-10-09T17:41:59.214Z,12.46
2022-10-09T17:44:31.983Z,12.37
2022-10-09T17:47:01.746Z,12.30
2022-10-09T17:49:31.323Z,12.23
2022-10-09T17:52:00.908Z,12.14
2022-10-09T17:54:30.726Z,12.06
2022-10-09T17:57:06.308Z,12.02
2022-10-09T17:59:36.681Z,11.93
2022-10-09T18:02:06.228Z,11.87
2022-10-09T18:04:35.863Z,11.77
2022-10-09T18:07:05.414Z,11.69
2022-10-09T18:09:35.251Z,11.63
2022-10-09T18:12:07.440Z,11.59
2022-10-09T18:14:37.356Z,11.52
2022-10-09T18:17:06.951Z,11.45
2022-10-09T18:19:36.500Z,11.36
2022-10-09T18:22:06.124Z,11.27
2022-10-09T18:24:35.721Z,11.23
2022-10-09T18:27:07.928Z,11.15
2022-10-09T18:29:37.607Z,11.11
2022-10-09T18:32:07.157Z,11.04
2022-10-09T18:34:39.264Z,10.97
2022-10-09T18:37:09.397Z,10.90
2022-10-09T18:39:38.963Z,10.81
2022-10-09T18:42:14.632Z,10.74
2022-10-09T18:44:44.421Z,10.67
2022-10-09T18:47:17.154Z,10.60
2022-10-09T18:49:48.595Z,10.52
2022-10-09T18:52:19.111Z,10.50
2022-10-09T18:54:50.303Z,10.47
2022-10-09T18:57:22.904Z,10.40
2022-10-09T18:59:52.875Z,10.35
2022-10-09T19:02:26.356Z,10.28
2022-10-09T19:04:55.977Z,10.23
2022-10-09T19:07:25.600Z,10.19
2022-10-09T19:09:57.547Z,10.16
2022-10-09T19:12:30.294Z,10.10
2022-10-09T19:14:59.957Z,10.06
2022-10-09T19:17:29.563Z,9.99
2022-10-09T19:19:59.376Z,9.94
2022-10-09T19:22:28.980Z,9.87
2022-10-09T19:24:58.570Z,9.83
2022-10-09T19:27:30.831Z,9.80
2022-10-09T19:30:00.379Z,9.76
2022-10-09T19:32:29.918Z,9.73
2022-10-09T19:34:59.780Z,9.69
2022-10-09T19:37:29.990Z,9.64
2022-10-09T19:39:59.753Z,9.61
2022-10-09T19:42:31.840Z,9.54
2022-10-09T19:45:01.391Z,9.46
2022-10-09T19:47:30.937Z,9.39
2022-10-09T19:50:00.486Z,9.33
2022-10-09T19:52:30.033Z,9.30
2022-10-09T19:54:59.575Z,9.24
2022-10-09T19:57:31.728Z,9.22
2022-10-09T20:00:01.322Z,9.22
2022-10-09T20:02:30.824Z,9.18
2022-10-09T20:05:00.384Z,9.10
2022-10-09T20:07:29.903Z,9.07
2022-10-09T20:09:59.604Z,8.95
2022-10-09T20:12:31.809Z,8.93
2022-10-09T20:15:01.332Z,8.88
2022-10-09T20:17:31.022Z,8.87
2022-10-09T20:20:00.650Z,8.88
2022-10-09T20:22:30.162Z,8.83
2022-10-09T20:24:59.713Z,8.76
2022-10-09T20:27:32.409Z,8.74
2022-10-09T20:30:02.095Z,8.66
2022-10-09T20:32:33.636Z,8.56
2022-10-09T20:35:03.281Z,8.54
2022-10-09T20:37:33.443Z,8.55
2022-10-09T20:40:03.058Z,8.52
2022-10-09T20:42:35.261Z,8.47
2022-10-09T20:45:04.904Z,8.37
2022-10-09T20:47:34.473Z,8.35
2022-10-09T20:50:03.997Z,8.25
2022-10-09T20:52:33.565Z,8.17
2022-10-09T20:55:03.105Z,8.12
2022-10-09T20:57:35.266Z,8.14
2022-10-09T21:00:04.828Z,8.16
2022-10-09T21:02:34.437Z,8.13
2022-10-09T21:05:04.269Z,8.08
2022-10-09T21:07:34.655Z,7.93
2022-10-09T21:10:05.155Z,7.92
2022-10-09T21:12:39.669Z,7.89
2022-10-09T21:15:10.368Z,7.82
2022-10-09T21:17:39.936Z,7.80
2022-10-09T21:20:10.017Z,7.80
2022-10-09T21:22:39.765Z,7.78
2022-10-09T21:25:10.112Z,7.78
2022-10-09T21:27:42.367Z,7.78
2022-10-09T21:30:13.220Z,7.62
2022-10-09T21:32:42.853Z,7.64
2022-10-09T21:35:12.450Z,7.62
2022-10-09T21:37:42.085Z,7.63
2022-10-09T21:40:12.286Z,7.60
2022-10-09T21:42:44.407Z,7.55
2022-10-09T21:45:14.793Z,7.51
2022-10-09T21:47:44.477Z,7.41
2022-10-09T21:50:14.051Z,7.39
2022-10-09T21:52:43.573Z,7.35
2022-10-09T21:55:13.173Z,7.31
2022-10-09T21:57:45.354Z,7.28
2022-10-09T22:00:15.563Z,7.23
2022-10-09T22:02:45.110Z,7.20
2022-10-09T22:05:14.691Z,7.21
2022-10-09T22:07:44.249Z,7.12
2022-10-09T22:10:13.874Z,7.08
2022-10-09T22:12:46.014Z,7.05
2022-10-09T22:15:15.568Z,7.03
2022-10-09T22:17:45.156Z,7.00
2022-10-09T22:20:14.701Z,6.99
2022-10-09T22:22:44.217Z,6.96
2022-10-09T22:25:13.887Z,6.93
2022-10-09T22:27:46.034Z,6.98
2022-10-09T22:30:16.463Z,7.08
2022-10-09T22:32:45.992Z,7.43
2022-10-09T22:35:15.612Z,7.65
2022-10-09T22:37:45.387Z,7.80
2022-10-09T22:40:14.944Z,8.10
2022-10-09T22:42:47.411Z,8.52
2022-10-09T22:45:17.295Z,8.71
2022-10-09T22:47:49.212Z,8.89
2022-10-09T22:50:18.848Z,9.32
2022-10-09T22:52:48.648Z,9.44
2022-10-09T22:55:18.568Z,9.63
2022-10-09T22:57:50.696Z,9.90
2022-10-09T23:00:20.351Z,10.21
2022-10-09T23:02:50.043Z,10.39
2022-10-09T23:05:19.843Z,10.50
2022-10-09T23:07:49.683Z,10.62
2022-10-09T23:10:19.434Z,10.74
2022-10-09T23:12:53.220Z,10.84
2022-10-09T23:15:22.943Z,10.96
2022-10-09T23:17:52.466Z,11.01
2022-10-09T23:20:22.009Z,11.05
2022-10-09T23:22:51.953Z,11.15
2022-10-09T23:25:21.708Z,11.18
2022-10-09T23:27:53.955Z,11.27
2022-10-09T23:30:23.651Z,11.35
2022-10-09T23:32:54.551Z,11.39
2022-10-09T23:35:24.198Z,11.33
2022-10-09T23:37:55.297Z,11.38
2022-10-09T23:40:25.125Z,11.43
2022-10-09T23:42:57.289Z,11.45
2022-10-09T23:45:26.874Z,11.54
2022-10-09T23:47:56.392Z,11.49
2022-10-09T23:50:25.946Z,11.56
2022-10-09T23:52:55.487Z,11.55
2022-10-09T23:55:25.035Z,11.55
2022-10-09T23:57:57.161Z,11.55
